createdAt,value
2017-07-02T00:01:07.525Z,22.00
2017-07-02T00:03:33.933Z,20.40
2017-07-02T00:06:00.297Z,20.50
2017-07-02T00:08:26.681Z,22.57
2017-07-02T00:10:53.073Z,18.83
2017-07-02T00:13:19.438Z,27.87
2017-07-02T00:15:45.794Z,23.57
2017-07-02T00:18:12.237Z,26.93
2017-07-02T00:20:38.624Z,24.90
2017-07-02T00:23:04.984Z,18.93
2017-07-02T00:25:31.335Z,15.70
2017-07-02T00:27:57.710Z,23.33
2017-07-02T00:30:24.185Z,20.67
2017-07-02T00:32:50.546Z,29.80
2017-07-02T00:35:16.908Z,22.53
2017-07-02T00:37:43.255Z,28.50
2017-07-02T00:40:09.668Z,23.80
2017-07-02T00:42:36.115Z,28.90
2017-07-02T00:45:02.736Z,23.17
2017-07-02T00:47:29.564Z,21.83
2017-07-02T00:49:55.892Z,21.93
2017-07-02T00:52:22.249Z,18.40
2017-07-02T00:54:48.625Z,25.40
2017-07-02T00:57:15.000Z,21.63
2017-07-02T00:59:41.373Z,25.63
2017-07-02T01:02:07.772Z,17.70
2017-07-02T01:04:34.203Z,15.97
2017-07-02T01:07:00.661Z,22.37
2017-07-02T01:09:27.046Z,23.73
2017-07-02T01:11:53.444Z,29.83
2017-07-02T01:14:19.818Z,20.70
2017-07-02T01:16:46.170Z,22.17
2017-07-02T01:19:12.522Z,23.77
2017-07-02T01:21:38.871Z,32.73
2017-07-02T01:24:05.236Z,20.50
2017-07-02T01:26:31.587Z,22.07
2017-07-02T01:28:57.920Z,22.07
2017-07-02T01:31:24.310Z,23.73
2017-07-02T01:33:50.681Z,28.03
2017-07-02T01:36:17.090Z,27.40
2017-07-02T01:38:43.467Z,23.23
2017-07-02T01:41:09.865Z,26.57
2017-07-02T01:43:36.262Z,22.00
2017-07-02T01:46:02.674Z,24.13
2017-07-02T01:48:29.077Z,21.23
2017-07-02T01:50:55.514Z,19.33
2017-07-02T01:53:21.928Z,28.80
2017-07-02T01:55:48.767Z,23.97
2017-07-02T01:58:15.251Z,25.90
2017-07-02T02:00:53.775Z,35.83
2017-07-02T02:03:20.222Z,29.67
2017-07-02T02:05:46.653Z,25.13
2017-07-02T02:08:13.874Z,22.87
2017-07-02T02:10:40.227Z,30.97
2017-07-02T02:13:06.610Z,39.23
2017-07-02T02:15:33.002Z,27.13
2017-07-02T02:17:59.394Z,39.07
2017-07-02T02:20:25.766Z,30.50
2017-07-02T02:22:52.193Z,33.70
2017-07-02T02:25:18.612Z,34.20
2017-07-02T02:27:44.964Z,33.30
2017-07-02T02:30:11.340Z,33.33
2017-07-02T02:32:37.737Z,34.87
2017-07-02T02:35:04.099Z,36.37
2017-07-02T02:37:30.478Z,38.73
2017-07-02T02:39:56.836Z,35.10
2017-07-02T02:42:23.225Z,32.40
2017-07-02T02:44:49.606Z,37.27
2017-07-02T02:47:15.958Z,35.20
2017-07-02T02:49:42.316Z,41.33
2017-07-02T02:52:08.724Z,30.27
2017-07-02T02:54:35.123Z,29.90
2017-07-02T02:57:01.510Z,36.37
2017-07-02T02:59:27.901Z,28.23
2017-07-02T03:01:54.285Z,27.90
2017-07-02T03:04:20.643Z,29.40
2017-07-02T03:06:47.019Z,27.27
2017-07-02T03:09:13.389Z,33.73
2017-07-02T03:11:39.761Z,29.63
2017-07-02T03:14:06.116Z,31.43
2017-07-02T03:16:32.470Z,38.87
2017-07-02T03:18:58.904Z,26.93
2017-07-02T03:21:25.262Z,40.20
2017-07-02T03:23:51.646Z,30.93
2017-07-02T03:26:18.006Z,33.67
2017-07-02T03:28:44.371Z,36.37
2017-07-02T03:31:10.722Z,31.97
2017-07-02T03:33:37.096Z,31.93
2017-07-02T03:36:03.480Z,31.07
2017-07-02T03:38:29.878Z,33.00
2017-07-02T03:40:59.659Z,32.33
2017-07-02T03:43:26.052Z,32.37
2017-07-02T03:45:52.432Z,40.83
2017-07-02T03:48:18.818Z,36.60
2017-07-02T03:50:45.204Z,33.80
2017-07-02T03:53:11.586Z,32.90
2017-07-02T03:55:37.946Z,34.30
2017-07-02T03:58:04.334Z,46.73
2017-07-02T04:00:30.677Z,34.80
2017-07-02T04:02:57.047Z,29.50
2017-07-02T04:05:23.414Z,26.80
2017-07-02T04:07:49.816Z,32.03
2017-07-02T04:10:16.189Z,29.60
2017-07-02T04:12:42.553Z,34.33
2017-07-02T04:15:08.981Z,31.20
2017-07-02T04:17:35.323Z,34.23
2017-07-02T04:20:01.714Z,31.17
2017-07-02T04:22:28.093Z,26.50
2017-07-02T04:24:54.479Z,35.03
2017-07-02T04:27:20.872Z,27.70
2017-07-02T04:29:47.225Z,29.00
2017-07-02T04:32:13.598Z,27.87
2017-07-02T04:34:39.955Z,29.23
2017-07-02T04:37:06.337Z,19.40
2017-07-02T04:39:32.702Z,24.10
2017-07-02T04:41:59.102Z,24.33
2017-07-02T04:44:25.524Z,26.17
2017-07-02T04:46:51.902Z,23.47
2017-07-02T04:49:18.264Z,18.03
2017-07-02T04:51:44.625Z,23.33
2017-07-02T04:54:10.979Z,24.13
2017-07-02T04:56:37.339Z,18.67
2017-07-02T04:59:03.693Z,19.80
2017-07-02T05:01:30.055Z,23.60
2017-07-02T05:03:56.407Z,21.97
2017-07-02T05:06:22.776Z,20.73
2017-07-02T05:08:49.175Z,25.07
2017-07-02T05:11:15.536Z,15.30
2017-07-02T05:13:41.889Z,21.93
2017-07-02T05:16:08.263Z,19.23
2017-07-02T05:18:34.634Z,24.13
2017-07-02T05:21:01.017Z,21.43
2017-07-02T05:23:27.434Z,19.00
2017-07-02T05:25:53.789Z,23.40
2017-07-02T05:28:20.159Z,25.07
2017-07-02T05:30:46.568Z,14.77
2017-07-02T05:33:13.002Z,16.07
2017-07-02T05:35:39.348Z,21.27
2017-07-02T05:38:05.738Z,16.97
2017-07-02T05:40:32.142Z,21.93
2017-07-02T05:42:58.580Z,21.10
2017-07-02T05:45:24.963Z,19.73
2017-07-02T05:47:51.340Z,21.60
2017-07-02T05:50:17.771Z,23.53
2017-07-02T05:52:44.127Z,23.53
2017-07-02T05:55:10.535Z,26.70
2017-07-02T05:57:36.929Z,21.03
2017-07-02T06:00:03.340Z,23.77
2017-07-02T06:02:29.751Z,21.33
2017-07-02T06:04:56.138Z,17.03
2017-07-02T06:07:22.490Z,19.97
2017-07-02T06:09:48.869Z,19.90
2017-07-02T06:12:15.234Z,17.60
2017-07-02T06:14:41.597Z,20.37
2017-07-02T06:17:07.986Z,22.07
2017-07-02T06:19:34.357Z,16.43
2017-07-02T06:22:00.729Z,16.47
2017-07-02T06:24:27.975Z,16.17
2017-07-02T06:26:54.336Z,16.57
2017-07-02T06:29:20.770Z,20.97
2017-07-02T06:31:47.123Z,24.13
2017-07-02T06:34:13.469Z,14.97
2017-07-02T06:36:39.831Z,13.13
2017-07-02T06:39:06.192Z,22.13
2017-07-02T06:41:40.499Z,17.50
2017-07-02T06:46:51.939Z,20.57
2017-07-02T06:49:18.320Z,21.10
2017-07-02T06:51:44.691Z,18.33
2017-07-02T06:54:11.065Z,17.33
2017-07-02T06:56:37.448Z,19.87
2017-07-02T06:59:03.803Z,20.23
2017-07-02T07:01:30.190Z,19.27
2017-07-02T07:03:56.558Z,17.80
2017-07-02T07:06:22.939Z,21.00
2017-07-02T07:08:49.316Z,13.53
2017-07-02T07:11:15.706Z,21.97
2017-07-02T07:13:42.082Z,17.33
2017-07-02T07:16:08.439Z,14.70
2017-07-02T07:18:34.809Z,15.63
2017-07-02T07:21:01.149Z,16.83
2017-07-02T07:23:28.452Z,17.60
2017-07-02T07:26:07.666Z,22.63
2017-07-02T07:28:34.187Z,21.23
2017-07-02T07:31:00.559Z,21.07
2017-07-02T07:33:27.012Z,19.17
2017-07-02T07:35:53.478Z,16.83
2017-07-02T07:38:20.065Z,14.63
2017-07-02T07:40:46.419Z,21.57
2017-07-02T07:43:15.825Z,19.03
2017-07-02T07:45:43.336Z,21.70
2017-07-02T07:48:13.639Z,17.27
2017-07-02T07:50:41.439Z,17.63
2017-07-02T07:53:07.804Z,21.70
2017-07-02T07:55:34.238Z,18.80
2017-07-02T07:58:00.643Z,18.33
2017-07-02T08:00:27.111Z,23.77
2017-07-02T08:02:53.477Z,20.57
2017-07-02T08:05:19.823Z,13.50
2017-07-02T08:07:46.223Z,16.30
2017-07-02T08:10:12.627Z,17.20
2017-07-02T08:12:39.004Z,20.77
2017-07-02T08:15:05.364Z,20.70
2017-07-02T08:17:31.734Z,18.90
2017-07-02T08:19:58.075Z,23.07
2017-07-02T08:22:24.451Z,18.20
2017-07-02T08:27:32.193Z,15.00
2017-07-02T08:29:58.578Z,17.07
2017-07-02T08:32:24.961Z,15.03
2017-07-02T08:34:51.329Z,12.73
2017-07-02T08:37:17.689Z,21.17
2017-07-02T08:39:44.038Z,12.37
2017-07-02T08:42:10.393Z,13.80
2017-07-02T08:44:36.771Z,16.70
2017-07-02T08:47:03.134Z,16.73
2017-07-02T08:49:29.517Z,16.97
2017-07-02T08:51:55.860Z,15.80
2017-07-02T08:54:22.188Z,19.23
2017-07-02T08:56:48.544Z,21.17
2017-07-02T08:59:14.910Z,22.80
2017-07-02T09:01:41.243Z,27.40
2017-07-02T09:04:07.617Z,25.67
2017-07-02T09:06:33.997Z,33.63
2017-07-02T09:09:01.368Z,31.30
2017-07-02T09:11:27.729Z,33.87
2017-07-02T09:13:54.138Z,34.17
2017-07-02T09:16:20.507Z,31.47
2017-07-02T09:18:46.885Z,32.17
2017-07-02T09:21:13.262Z,28.43
2017-07-02T09:23:39.603Z,26.90
2017-07-02T09:26:08.110Z,24.17
2017-07-02T09:28:34.567Z,22.73
2017-07-02T09:31:01.043Z,23.30
2017-07-02T09:33:27.429Z,25.80
2017-07-02T09:35:53.823Z,21.47
2017-07-02T09:38:20.542Z,17.63
2017-07-02T09:40:46.952Z,17.70
2017-07-02T09:43:13.346Z,19.20
2017-07-02T09:45:39.753Z,18.40
2017-07-02T09:48:06.117Z,16.43
2017-07-02T09:50:32.499Z,18.17
2017-07-02T09:52:58.927Z,20.93
2017-07-02T09:55:25.333Z,19.70
2017-07-02T09:57:51.783Z,19.60
2017-07-02T10:00:18.218Z,21.87
2017-07-02T10:02:44.665Z,25.03
2017-07-02T10:05:11.106Z,27.07
2017-07-02T10:07:37.505Z,31.17
2017-07-02T10:10:04.054Z,31.70
2017-07-02T10:12:30.501Z,33.23
2017-07-02T10:14:56.993Z,36.53
2017-07-02T10:17:23.383Z,38.60
2017-07-02T10:19:49.755Z,43.13
2017-07-02T10:22:17.054Z,36.00
2017-07-02T10:24:43.410Z,38.53
2017-07-02T10:27:09.779Z,35.43
2017-07-02T10:29:36.153Z,35.07
2017-07-02T10:32:02.551Z,36.17
2017-07-02T10:34:28.942Z,42.10
2017-07-02T10:36:55.306Z,49.87
2017-07-02T10:39:21.691Z,37.17
2017-07-02T10:41:48.063Z,36.30
2017-07-02T10:44:14.434Z,40.37
2017-07-02T10:46:40.827Z,42.00
2017-07-02T10:49:07.196Z,35.80
2017-07-02T10:51:33.556Z,35.43
2017-07-02T10:53:59.923Z,34.77
2017-07-02T10:56:26.284Z,34.80
2017-07-02T10:58:52.636Z,37.47
2017-07-02T11:01:18.997Z,37.20
2017-07-02T11:03:45.354Z,29.70
2017-07-02T11:06:11.725Z,32.13
2017-07-02T11:08:38.088Z,34.87
2017-07-02T11:11:04.442Z,33.57
2017-07-02T11:13:30.778Z,31.50
2017-07-02T11:15:57.151Z,31.37
2017-07-02T11:18:26.962Z,30.47
2017-07-02T11:20:53.467Z,36.17
2017-07-02T11:23:19.811Z,29.00
2017-07-02T11:25:46.185Z,31.27
2017-07-02T11:28:12.528Z,32.17
2017-07-02T11:30:38.864Z,30.67
2017-07-02T11:33:05.227Z,28.40
2017-07-02T11:35:31.569Z,26.93
2017-07-02T11:37:57.947Z,28.60
2017-07-02T11:40:24.288Z,29.10
2017-07-02T11:42:50.634Z,29.47
2017-07-02T11:45:17.010Z,28.87
2017-07-02T11:47:43.350Z,29.10
2017-07-02T11:50:09.702Z,31.50
2017-07-02T11:52:36.078Z,27.77
2017-07-02T11:55:02.412Z,27.40
2017-07-02T11:57:28.743Z,28.50
2017-07-02T11:59:55.094Z,27.20
2017-07-02T12:02:21.452Z,27.93
2017-07-02T12:04:47.807Z,29.27
2017-07-02T12:07:14.167Z,29.30
2017-07-02T12:09:40.519Z,29.60
2017-07-02T12:12:06.915Z,29.33
2017-07-02T12:14:33.280Z,29.27
2017-07-02T12:16:59.648Z,28.60
2017-07-02T12:19:26.113Z,31.73
2017-07-02T12:21:53.086Z,26.53
2017-07-02T12:24:19.523Z,24.13
2017-07-02T12:26:46.005Z,21.03
2017-07-02T12:29:12.402Z,20.70
2017-07-02T12:31:38.803Z,16.47
2017-07-02T12:34:05.267Z,16.60
2017-07-02T12:36:31.670Z,16.40
2017-07-02T12:38:58.771Z,12.63
2017-07-02T12:41:25.734Z,12.90
2017-07-02T12:43:52.193Z,13.43
2017-07-02T12:46:18.595Z,14.47
2017-07-02T12:48:44.981Z,15.00
2017-07-02T12:51:11.384Z,15.23
2017-07-02T12:53:37.723Z,16.33
2017-07-02T12:56:04.062Z,16.40
2017-07-02T12:58:30.377Z,18.50
2017-07-02T13:00:56.707Z,15.57
2017-07-02T13:03:23.038Z,13.53
2017-07-02T13:05:49.374Z,14.63
2017-07-02T13:08:15.722Z,12.60
2017-07-02T13:10:42.086Z,12.03
2017-07-02T13:13:08.439Z,13.63
2017-07-02T13:15:34.782Z,10.63
2017-07-02T13:18:01.141Z,12.90
2017-07-02T13:20:27.479Z,12.03
2017-07-02T13:22:53.893Z,11.47
2017-07-02T13:25:20.246Z,11.60
2017-07-02T13:27:46.625Z,11.57
2017-07-02T13:30:13.009Z,11.80
2017-07-02T13:32:39.371Z,10.20
2017-07-02T13:35:05.785Z,11.53
2017-07-02T13:37:32.250Z,11.53
2017-07-02T13:39:58.624Z,11.27
2017-07-02T13:42:24.998Z,12.37
2017-07-02T13:44:51.330Z,12.90
2017-07-02T13:47:17.715Z,13.30
2017-07-02T13:49:44.044Z,14.50
2017-07-02T13:52:10.403Z,14.43
2017-07-02T13:54:36.731Z,15.20
2017-07-02T13:57:03.086Z,16.33
2017-07-02T13:59:29.392Z,16.80
2017-07-02T14:01:55.763Z,16.87
2017-07-02T14:04:22.112Z,15.07
2017-07-02T14:06:48.475Z,16.77
2017-07-02T14:09:14.834Z,16.17
2017-07-02T14:11:41.179Z,17.10
2017-07-02T14:14:07.557Z,15.63
2017-07-02T14:16:44.538Z,17.53
2017-07-02T14:19:10.914Z,15.23
2017-07-02T14:21:37.273Z,17.10
2017-07-02T14:24:03.629Z,15.40
2017-07-02T14:26:29.976Z,15.83
2017-07-02T14:28:56.440Z,17.03
2017-07-02T14:31:23.046Z,17.07
2017-07-02T14:33:49.450Z,15.77
2017-07-02T14:36:15.862Z,17.40
2017-07-02T14:38:42.229Z,16.47
2017-07-02T14:41:08.574Z,15.50
2017-07-02T14:43:34.948Z,15.50
2017-07-02T14:46:01.362Z,14.30
2017-07-02T14:48:33.605Z,15.70
2017-07-02T14:51:00.033Z,13.67
2017-07-02T14:53:26.446Z,14.70
2017-07-02T14:55:52.853Z,14.43
2017-07-02T14:58:19.242Z,14.60
2017-07-02T15:00:45.645Z,14.40
2017-07-02T15:03:12.028Z,14.13
2017-07-02T15:05:38.397Z,14.93
2017-07-02T15:08:04.779Z,14.17
2017-07-02T15:10:31.158Z,14.50
2017-07-02T15:12:57.511Z,14.97
2017-07-02T15:15:23.863Z,15.60
2017-07-02T15:17:50.250Z,14.27
2017-07-02T15:20:16.665Z,14.57
2017-07-02T15:22:43.055Z,14.87
2017-07-02T15:25:17.670Z,13.23
2017-07-02T15:27:44.023Z,10.37
2017-07-02T15:30:10.374Z,10.00
2017-07-02T15:32:36.760Z,10.97
2017-07-02T15:35:03.116Z,11.63
2017-07-02T15:37:29.787Z,10.20
2017-07-02T15:39:56.234Z,9.87
2017-07-02T15:42:22.623Z,9.20
2017-07-02T15:44:49.219Z,9.70
2017-07-02T15:47:15.688Z,9.97
2017-07-02T15:49:42.308Z,9.60
2017-07-02T15:52:08.720Z,8.30
2017-07-02T15:54:35.150Z,8.70
2017-07-02T15:57:01.526Z,6.17
2017-07-02T15:59:27.905Z,6.10
2017-07-02T16:01:54.253Z,4.97
2017-07-02T16:04:20.950Z,4.27
2017-07-02T16:06:47.674Z,3.80
2017-07-02T16:09:14.079Z,4.60
2017-07-02T16:11:40.459Z,3.20
2017-07-02T16:14:06.851Z,6.50
2017-07-02T16:16:33.220Z,4.00
2017-07-02T16:18:59.552Z,3.13
2017-07-02T16:21:25.943Z,3.90
2017-07-02T16:23:52.628Z,5.20
2017-07-02T16:26:19.034Z,3.60
2017-07-02T16:28:45.420Z,4.23
2017-07-02T16:31:11.811Z,4.50
2017-07-02T16:33:38.210Z,2.93
2017-07-02T16:36:04.713Z,3.23
2017-07-02T16:38:31.092Z,2.77
2017-07-02T16:40:58.485Z,2.87
2017-07-02T16:43:24.960Z,3.60
2017-07-02T16:45:51.382Z,4.17
2017-07-02T16:48:17.959Z,4.33
2017-07-02T16:50:44.336Z,3.90
2017-07-02T16:53:10.689Z,3.67
2017-07-02T16:55:37.087Z,3.70
2017-07-02T16:58:03.490Z,3.83
2017-07-02T17:00:29.872Z,3.03
2017-07-02T17:02:56.220Z,3.70
2017-07-02T17:05:22.604Z,2.40
2017-07-02T17:07:48.967Z,2.43
2017-07-02T17:10:15.332Z,2.67
2017-07-02T17:12:41.716Z,3.83
2017-07-02T17:15:08.073Z,3.77
2017-07-02T17:17:34.445Z,3.47
2017-07-02T17:20:00.855Z,3.27
2017-07-02T17:22:27.251Z,3.73
2017-07-02T17:24:55.633Z,2.37
2017-07-02T17:27:22.015Z,2.30
2017-07-02T17:29:48.424Z,3.90
2017-07-02T17:32:14.818Z,1.80
2017-07-02T17:34:41.189Z,5.47
2017-07-02T17:37:07.538Z,3.23
2017-07-02T17:39:33.892Z,3.40
2017-07-02T17:42:04.467Z,3.27
2017-07-02T17:44:30.937Z,2.60
2017-07-02T17:46:57.402Z,4.20
2017-07-02T17:49:24.505Z,3.47
2017-07-02T17:51:50.994Z,5.17
2017-07-02T17:54:18.135Z,2.97
2017-07-02T17:56:44.728Z,5.40
2017-07-02T17:59:11.611Z,3.13
2017-07-02T18:01:38.660Z,2.53
2017-07-02T18:04:05.903Z,8.63
2017-07-02T18:06:32.577Z,2.13
2017-07-02T18:08:59.453Z,2.67
2017-07-02T18:11:26.507Z,4.47
2017-07-02T18:13:52.973Z,2.43
2017-07-02T18:16:19.386Z,6.97
2017-07-02T18:18:46.233Z,4.67
2017-07-02T18:21:12.625Z,2.30
2017-07-02T18:23:39.413Z,3.13
2017-07-02T18:26:05.803Z,2.93
2017-07-02T18:28:32.170Z,2.53
2017-07-02T18:30:58.517Z,2.57
2017-07-02T18:33:24.866Z,4.60
2017-07-02T18:35:51.836Z,4.53
2017-07-02T18:38:18.410Z,6.90
2017-07-02T18:40:44.794Z,2.87
2017-07-02T18:43:11.189Z,4.40
2017-07-02T18:45:37.545Z,2.40
2017-07-02T18:48:03.946Z,4.57
2017-07-02T18:50:30.330Z,3.23
2017-07-02T18:52:56.730Z,2.77
2017-07-02T18:55:23.117Z,3.53
2017-07-02T18:57:49.506Z,2.70
2017-07-02T19:00:15.935Z,2.63
2017-07-02T19:02:42.332Z,4.53
2017-07-02T19:05:08.719Z,4.40
2017-07-02T19:07:35.066Z,8.40
2017-07-02T19:10:01.457Z,2.70
2017-07-02T19:12:27.925Z,5.60
2017-07-02T19:14:54.391Z,4.13
2017-07-02T19:17:20.813Z,4.40
2017-07-02T19:19:47.211Z,4.80
2017-07-02T19:22:13.585Z,7.80
2017-07-02T19:24:39.956Z,4.07
2017-07-02T19:27:06.340Z,4.30
2017-07-02T19:29:32.693Z,6.70
2017-07-02T19:31:59.107Z,3.40
2017-07-02T19:34:25.492Z,7.10
2017-07-02T19:36:51.836Z,4.43
2017-07-02T19:39:18.188Z,10.23
2017-07-02T19:41:44.656Z,9.67
2017-07-02T19:44:11.019Z,6.80
2017-07-02T19:46:37.395Z,4.73
2017-07-02T19:49:03.746Z,7.50
2017-07-02T19:51:30.126Z,5.80
2017-07-02T19:53:56.491Z,5.70
2017-07-02T19:56:22.839Z,4.53
2017-07-02T19:58:49.219Z,4.10
2017-07-02T20:01:15.623Z,5.10
2017-07-02T20:03:41.995Z,4.90
2017-07-02T20:06:13.130Z,7.23
2017-07-02T20:08:39.616Z,5.60
2017-07-02T20:11:05.966Z,7.07
2017-07-02T20:13:32.350Z,3.80
2017-07-02T20:15:58.759Z,4.33
2017-07-02T20:18:25.104Z,4.37
2017-07-02T20:20:57.262Z,3.47
2017-07-02T20:23:23.593Z,5.50
2017-07-02T20:25:50.048Z,7.27
2017-07-02T20:28:16.476Z,5.83
2017-07-02T20:30:42.851Z,4.93
2017-07-02T20:33:09.261Z,8.30
2017-07-02T20:35:36.120Z,5.30
2017-07-02T20:38:02.536Z,9.10
2017-07-02T20:40:30.007Z,7.90
2017-07-02T20:42:56.429Z,5.43
2017-07-02T20:45:22.803Z,8.30
2017-07-02T20:47:49.170Z,6.67
2017-07-02T20:50:15.580Z,2.50
2017-07-02T20:52:41.965Z,7.70
2017-07-02T20:55:08.319Z,8.43
2017-07-02T20:57:34.795Z,7.30
2017-07-02T21:00:01.159Z,8.67
2017-07-02T21:02:27.521Z,6.30
2017-07-02T21:04:56.789Z,13.33
2017-07-02T21:07:23.255Z,7.53
2017-07-02T21:09:49.972Z,6.43
2017-07-02T21:12:30.717Z,9.03
2017-07-02T21:14:57.052Z,3.90
2017-07-02T21:17:23.394Z,6.57
2017-07-02T21:19:53.608Z,7.07
2017-07-02T21:22:20.061Z,5.97
2017-07-02T21:24:47.450Z,6.10
2017-07-02T21:27:13.926Z,9.40
2017-07-02T21:29:40.772Z,8.87
2017-07-02T21:32:07.154Z,5.30
2017-07-02T21:34:33.750Z,4.23
2017-07-02T21:37:00.904Z,14.27
2017-07-02T21:39:27.288Z,6.43
2017-07-02T21:41:53.632Z,7.43
2017-07-02T21:44:19.955Z,6.97
2017-07-02T21:46:46.320Z,8.40
2017-07-02T21:49:12.797Z,7.87
2017-07-02T21:51:39.802Z,8.53
2017-07-02T21:54:06.210Z,8.80
2017-07-02T21:56:32.854Z,8.20
2017-07-02T21:58:59.208Z,5.10
2017-07-02T22:01:25.610Z,4.50
2017-07-02T22:03:51.959Z,8.40
2017-07-02T22:06:18.314Z,7.33
2017-07-02T22:08:51.022Z,6.70
2017-07-02T22:11:17.391Z,9.30
2017-07-02T22:13:44.094Z,6.20
2017-07-02T22:16:10.483Z,5.47
2017-07-02T22:18:36.902Z,9.33
2017-07-02T22:21:03.924Z,5.33
2017-07-02T22:23:30.597Z,8.83
2017-07-02T22:25:56.967Z,6.67
2017-07-02T22:28:23.332Z,4.90
2017-07-02T22:30:49.676Z,8.53
2017-07-02T22:33:16.065Z,6.77
2017-07-02T22:35:42.461Z,14.30
2017-07-02T22:38:08.849Z,9.50
2017-07-02T22:40:35.211Z,6.20
2017-07-02T22:43:01.589Z,11.30
2017-07-02T22:45:28.425Z,6.53
2017-07-02T22:47:54.844Z,7.90
2017-07-02T22:50:21.176Z,10.53
2017-07-02T22:52:47.496Z,8.60
2017-07-02T22:55:13.852Z,6.67
2017-07-02T22:57:40.239Z,9.27
2017-07-02T23:00:06.588Z,9.63
2017-07-02T23:02:32.936Z,10.93
2017-07-02T23:04:59.292Z,7.73
2017-07-02T23:07:25.696Z,8.03
2017-07-02T23:09:52.020Z,8.73
2017-07-02T23:12:18.389Z,7.80
2017-07-02T23:14:44.732Z,5.27
2017-07-02T23:17:11.059Z,6.47
2017-07-02T23:19:37.422Z,6.10
2017-07-02T23:22:03.828Z,12.23
2017-07-02T23:24:30.392Z,6.33
2017-07-02T23:26:56.746Z,8.03
2017-07-02T23:29:24.120Z,11.03
2017-07-02T23:31:50.688Z,8.47
2017-07-02T23:34:17.103Z,11.27
2017-07-02T23:36:43.458Z,8.60
2017-07-02T23:39:09.864Z,11.97
2017-07-02T23:41:36.266Z,8.87
2017-07-02T23:44:05.169Z,7.83
2017-07-02T23:46:31.564Z,7.00
2017-07-02T23:48:57.938Z,9.67
2017-07-02T23:51:24.431Z,7.40
2017-07-02T23:53:50.781Z,6.20
2017-07-02T23:56:17.161Z,9.47
2017-07-02T23:58:43.501Z,12.77
